sensor_id;sensor_type;location;lat;lon;timestamp;temperature;humidity
13642;DHT22;6894;52.196;9.904;2023-02-22T00:00:19;9.10;99.90
13642;DHT22;6894;52.196;9.904;2023-02-22T00:02:48;9.10;99.90
13642;DHT22;6894;52.196;9.904;2023-02-22T00:05:17;9.00;99.90
13642;DHT22;6894;52.196;9.904;2023-02-22T00:07:46;9.10;99.90
13642;DHT22;6894;52.196;9.904;2023-02-22T00:10:14;9.10;99.90
13642;DHT22;6894;52.196;9.904;2023-02-22T00:12:46;9.10;99.90
13642;DHT22;6894;52.196;9.904;2023-02-22T00:15:15;9.10;99.90
13642;DHT22;6894;52.196;9.904;2023-02-22T00:17:42;9.20;99.90
13642;DHT22;6894;52.196;9.904;2023-02-22T00:20:11;9.20;99.90
13642;DHT22;6894;52.196;9.904;2023-02-22T00:22:39;9.20;99.90
13642;DHT22;6894;52.196;9.904;2023-02-22T00:25:06;9.20;99.90
13642;DHT22;6894;52.196;9.904;2023-02-22T00:27:33;9.20;99.90
13642;DHT22;6894;52.196;9.904;2023-02-22T00:30:01;9.20;99.90
13642;DHT22;6894;52.196;9.904;2023-02-22T00:32:28;9.30;99.90
13642;DHT22;6894;52.196;9.904;2023-02-22T00:34:55;9.20;99.90
13642;DHT22;6894;52.196;9.904;2023-02-22T00:37:22;9.20;99.90
13642;DHT22;6894;52.196;9.904;2023-02-22T00:39:49;9.30;99.90
13642;DHT22;6894;52.196;9.904;2023-02-22T00:42:17;9.10;99.90
13642;DHT22;6894;52.196;9.904;2023-02-22T00:44:44;9.20;99.90
13642;DHT22;6894;52.196;9.904;2023-02-22T00:47:12;9.20;99.90
13642;DHT22;6894;52.196;9.904;2023-02-22T00:49:39;9.20;99.90
13642;DHT22;6894;52.196;9.904;2023-02-22T00:52:06;9.10;99.90
13642;DHT22;6894;52.196;9.904;2023-02-22T00:54:33;9.10;99.90
13642;DHT22;6894;52.196;9.904;2023-02-22T00:57:01;9.10;99.90
13642;DHT22;6894;52.196;9.904;2023-02-22T00:59:29;9.10;99.90
13642;DHT22;6894;52.196;9.904;2023-02-22T01:01:56;9.10;99.90
13642;DHT22;6894;52.196;9.904;2023-02-22T01:04:25;9.20;99.90
13642;DHT22;6894;52.196;9.904;2023-02-22T01:06:51;9.10;99.90
13642;DHT22;6894;52.196;9.904;2023-02-22T01:09:20;9.10;99.90
13642;DHT22;6894;52.196;9.904;2023-02-22T01:11:47;9.20;99.90
13642;DHT22;6894;52.196;9.904;2023-02-22T01:14:14;9.20;99.90
13642;DHT22;6894;52.196;9.904;2023-02-22T01:16:40;9.20;99.90
13642;DHT22;6894;52.196;9.904;2023-02-22T01:19:08;9.20;99.90
13642;DHT22;6894;52.196;9.904;2023-02-22T01:21:38;9.20;99.90
13642;DHT22;6894;52.196;9.904;2023-02-22T01:24:05;9.20;99.90
13642;DHT22;6894;52.196;9.904;2023-02-22T01:26:32;9.20;99.90
13642;DHT22;6894;52.196;9.904;2023-02-22T01:28:59;9.20;99.90
13642;DHT22;6894;52.196;9.904;2023-02-22T01:31:26;9.10;99.90
13642;DHT22;6894;52.196;9.904;2023-02-22T01:33:53;9.10;99.90
13642;DHT22;6894;52.196;9.904;2023-02-22T01:36:20;9.10;99.90
13642;DHT22;6894;52.196;9.904;2023-02-22T01:38:48;9.10;99.90
13642;DHT22;6894;52.196;9.904;2023-02-22T01:41:15;9.00;99.90
13642;DHT22;6894;52.196;9.904;2023-02-22T01:43:42;9.00;99.90
13642;DHT22;6894;52.196;9.904;2023-02-22T01:46:20;9.00;99.90
13642;DHT22;6894;52.196;9.904;2023-02-22T01:48:49;9.00;99.90
13642;DHT22;6894;52.196;9.904;2023-02-22T01:51:20;9.00;99.90
13642;DHT22;6894;52.196;9.904;2023-02-22T01:53:52;8.90;99.90
13642;DHT22;6894;52.196;9.904;2023-02-22T01:56:22;8.80;99.90
13642;DHT22;6894;52.196;9.904;2023-02-22T01:58:51;8.80;99.90
13642;DHT22;6894;52.196;9.904;2023-02-22T02:01:21;8.70;99.90
13642;DHT22;6894;52.196;9.904;2023-02-22T02:03:49;8.70;99.90
13642;DHT22;6894;52.196;9.904;2023-02-22T02:06:18;8.70;99.90
13642;DHT22;6894;52.196;9.904;2023-02-22T02:08:52;8.70;99.90
13642;DHT22;6894;52.196;9.904;2023-02-22T02:11:21;8.60;99.90
13642;DHT22;6894;52.196;9.904;2023-02-22T02:13:49;8.60;99.90
13642;DHT22;6894;52.196;9.904;2023-02-22T02:16:17;8.60;99.90
13642;DHT22;6894;52.196;9.904;2023-02-22T02:18:46;8.50;99.90
13642;DHT22;6894;52.196;9.904;2023-02-22T02:21:38;8.50;99.90
13642;DHT22;6894;52.196;9.904;2023-02-22T02:27:18;8.30;99.90
13642;DHT22;6894;52.196;9.904;2023-02-22T02:30:26;8.20;99.90
13642;DHT22;6894;52.196;9.904;2023-02-22T02:33:04;8.10;99.90
13642;DHT22;6894;52.196;9.904;2023-02-22T02:35:45;8.10;99.90
13642;DHT22;6894;52.196;9.904;2023-02-22T02:38:19;8.00;99.90
13642;DHT22;6894;52.196;9.904;2023-02-22T02:40:50;8.00;99.90
13642;DHT22;6894;52.196;9.904;2023-02-22T02:43:26;8.00;99.90
13642;DHT22;6894;52.196;9.904;2023-02-22T02:45:57;7.90;99.90
13642;DHT22;6894;52.196;9.904;2023-02-22T02:48:32;8.40;99.90
13642;DHT22;6894;52.196;9.904;2023-02-22T02:51:02;7.80;99.90
13642;DHT22;6894;52.196;9.904;2023-02-22T02:53:34;7.80;99.90
13642;DHT22;6894;52.196;9.904;2023-02-22T02:56:02;7.80;99.90
13642;DHT22;6894;52.196;9.904;2023-02-22T02:58:29;7.70;99.90
13642;DHT22;6894;52.196;9.904;2023-02-22T03:00:59;7.70;99.90
13642;DHT22;6894;52.196;9.904;2023-02-22T03:03:46;7.70;99.90
13642;DHT22;6894;52.196;9.904;2023-02-22T03:06:46;7.60;99.90
13642;DHT22;6894;52.196;9.904;2023-02-22T03:09:26;7.60;99.90
13642;DHT22;6894;52.196;9.904;2023-02-22T03:12:06;7.60;99.90
13642;DHT22;6894;52.196;9.904;2023-02-22T03:14:41;7.70;99.90
13642;DHT22;6894;52.196;9.904;2023-02-22T03:17:17;7.70;99.90
13642;DHT22;6894;52.196;9.904;2023-02-22T03:19:50;7.70;99.90
13642;DHT22;6894;52.196;9.904;2023-02-22T03:22:22;7.80;99.90
13642;DHT22;6894;52.196;9.904;2023-02-22T03:24:56;7.80;99.90
13642;DHT22;6894;52.196;9.904;2023-02-22T03:27:30;7.60;99.90
13642;DHT22;6894;52.196;9.904;2023-02-22T03:30:02;7.50;99.90
13642;DHT22;6894;52.196;9.904;2023-02-22T03:32:34;7.40;99.90
13642;DHT22;6894;52.196;9.904;2023-02-22T03:35:06;7.50;99.90
13642;DHT22;6894;52.196;9.904;2023-02-22T03:37:37;7.50;99.90
13642;DHT22;6894;52.196;9.904;2023-02-22T03:40:08;7.60;99.90
13642;DHT22;6894;52.196;9.904;2023-02-22T03:42:41;7.70;99.90
13642;DHT22;6894;52.196;9.904;2023-02-22T03:45:10;7.80;99.90
13642;DHT22;6894;52.196;9.904;2023-02-22T03:47:41;7.80;99.90
13642;DHT22;6894;52.196;9.904;2023-02-22T03:50:12;7.80;99.90
13642;DHT22;6894;52.196;9.904;2023-02-22T03:52:40;7.80;99.90
13642;DHT22;6894;52.196;9.904;2023-02-22T03:55:09;7.90;99.90
13642;DHT22;6894;52.196;9.904;2023-02-22T03:57:39;7.90;99.90
13642;DHT22;6894;52.196;9.904;2023-02-22T04:00:09;8.00;99.90
13642;DHT22;6894;52.196;9.904;2023-02-22T04:02:36;8.00;99.90
13642;DHT22;6894;52.196;9.904;2023-02-22T04:05:03;8.00;99.90
13642;DHT22;6894;52.196;9.904;2023-02-22T04:07:32;8.10;99.90
13642;DHT22;6894;52.196;9.904;2023-02-22T04:09:59;8.10;99.90
13642;DHT22;6894;52.196;9.904;2023-02-22T04:12:27;8.20;99.90
13642;DHT22;6894;52.196;9.904;2023-02-22T04:14:54;8.20;99.90
13642;DHT22;6894;52.196;9.904;2023-02-22T04:17:20;8.20;99.90
13642;DHT22;6894;52.196;9.904;2023-02-22T04:19:47;8.30;99.90
13642;DHT22;6894;52.196;9.904;2023-02-22T04:22:14;8.20;99.90
13642;DHT22;6894;52.196;9.904;2023-02-22T04:24:42;8.20;99.90
13642;DHT22;6894;52.196;9.904;2023-02-22T04:27:09;8.20;99.90
13642;DHT22;6894;52.196;9.904;2023-02-22T04:29:36;8.20;99.90
13642;DHT22;6894;52.196;9.904;2023-02-22T04:32:03;8.10;99.90
13642;DHT22;6894;52.196;9.904;2023-02-22T04:34:30;8.10;99.90
13642;DHT22;6894;52.196;9.904;2023-02-22T04:36:57;8.20;99.90
13642;DHT22;6894;52.196;9.904;2023-02-22T04:39:24;8.10;99.90
13642;DHT22;6894;52.196;9.904;2023-02-22T04:41:52;8.10;99.90
13642;DHT22;6894;52.196;9.904;2023-02-22T04:44:18;8.10;99.90
13642;DHT22;6894;52.196;9.904;2023-02-22T04:46:45;8.10;99.90
13642;DHT22;6894;52.196;9.904;2023-02-22T04:49:12;8.10;99.90
13642;DHT22;6894;52.196;9.904;2023-02-22T04:51:39;8.10;99.90
13642;DHT22;6894;52.196;9.904;2023-02-22T04:54:07;8.10;99.90
13642;DHT22;6894;52.196;9.904;2023-02-22T04:56:33;8.10;99.90
13642;DHT22;6894;52.196;9.904;2023-02-22T04:59:02;8.10;99.90
13642;DHT22;6894;52.196;9.904;2023-02-22T05:01:30;8.10;99.90
13642;DHT22;6894;52.196;9.904;2023-02-22T05:03:58;8.10;99.90
13642;DHT22;6894;52.196;9.904;2023-02-22T05:06:24;8.10;99.90
13642;DHT22;6894;52.196;9.904;2023-02-22T05:08:51;8.10;99.90
13642;DHT22;6894;52.196;9.904;2023-02-22T05:11:18;8.00;99.90
13642;DHT22;6894;52.196;9.904;2023-02-22T05:13:45;8.10;99.90
13642;DHT22;6894;52.196;9.904;2023-02-22T05:16:13;8.20;99.90
13642;DHT22;6894;52.196;9.904;2023-02-22T05:18:40;8.10;99.90
13642;DHT22;6894;52.196;9.904;2023-02-22T05:21:07;8.00;99.90
13642;DHT22;6894;52.196;9.904;2023-02-22T05:23:34;8.00;99.90
13642;DHT22;6894;52.196;9.904;2023-02-22T05:26:01;8.20;99.90
13642;DHT22;6894;52.196;9.904;2023-02-22T05:28:27;8.10;99.90
13642;DHT22;6894;52.196;9.904;2023-02-22T05:30:54;8.10;99.90
13642;DHT22;6894;52.196;9.904;2023-02-22T05:33:22;8.10;99.90
13642;DHT22;6894;52.196;9.904;2023-02-22T05:35:49;8.10;99.90
13642;DHT22;6894;52.196;9.904;2023-02-22T05:38:16;8.20;99.90
13642;DHT22;6894;52.196;9.904;2023-02-22T05:40:42;8.20;99.90
13642;DHT22;6894;52.196;9.904;2023-02-22T05:43:09;8.30;99.90
13642;DHT22;6894;52.196;9.904;2023-02-22T05:45:36;8.10;99.90
13642;DHT22;6894;52.196;9.904;2023-02-22T05:48:03;8.20;99.90
13642;DHT22;6894;52.196;9.904;2023-02-22T05:50:32;8.10;99.90
13642;DHT22;6894;52.196;9.904;2023-02-22T05:52:59;8.10;99.90
13642;DHT22;6894;52.196;9.904;2023-02-22T05:55:26;8.10;99.90
13642;DHT22;6894;52.196;9.904;2023-02-22T05:57:53;8.00;99.90
13642;DHT22;6894;52.196;9.904;2023-02-22T06:00:21;8.00;99.90
13642;DHT22;6894;52.196;9.904;2023-02-22T06:02:53;8.00;99.90
13642;DHT22;6894;52.196;9.904;2023-02-22T06:05:20;7.90;99.90
13642;DHT22;6894;52.196;9.904;2023-02-22T06:07:48;7.90;99.90
13642;DHT22;6894;52.196;9.904;2023-02-22T06:10:15;8.00;99.90
13642;DHT22;6894;52.196;9.904;2023-02-22T06:12:42;7.80;99.90
13642;DHT22;6894;52.196;9.904;2023-02-22T06:15:09;7.80;99.90
13642;DHT22;6894;52.196;9.904;2023-02-22T06:17:36;7.90;99.90
13642;DHT22;6894;52.196;9.904;2023-02-22T06:20:07;7.80;99.90
13642;DHT22;6894;52.196;9.904;2023-02-22T06:22:34;7.80;99.90
13642;DHT22;6894;52.196;9.904;2023-02-22T06:25:03;7.80;99.90
13642;DHT22;6894;52.196;9.904;2023-02-22T06:27:31;7.80;99.90
13642;DHT22;6894;52.196;9.904;2023-02-22T06:29:58;7.80;99.90
13642;DHT22;6894;52.196;9.904;2023-02-22T06:32:25;7.70;99.90
13642;DHT22;6894;52.196;9.904;2023-02-22T06:34:52;7.70;99.90
13642;DHT22;6894;52.196;9.904;2023-02-22T06:37:19;7.70;99.90
13642;DHT22;6894;52.196;9.904;2023-02-22T06:39:46;7.70;99.90
13642;DHT22;6894;52.196;9.904;2023-02-22T06:42:14;7.80;99.90
13642;DHT22;6894;52.196;9.904;2023-02-22T06:44:41;7.70;99.90
13642;DHT22;6894;52.196;9.904;2023-02-22T06:47:07;7.60;99.90
13642;DHT22;6894;52.196;9.904;2023-02-22T06:49:34;7.60;99.90
13642;DHT22;6894;52.196;9.904;2023-02-22T06:52:03;7.60;99.90
13642;DHT22;6894;52.196;9.904;2023-02-22T06:54:30;7.60;99.90
13642;DHT22;6894;52.196;9.904;2023-02-22T06:56:57;7.70;99.90
13642;DHT22;6894;52.196;9.904;2023-02-22T06:59:25;7.60;99.90
13642;DHT22;6894;52.196;9.904;2023-02-22T07:01:52;7.60;99.90
13642;DHT22;6894;52.196;9.904;2023-02-22T07:04:19;7.60;99.90
13642;DHT22;6894;52.196;9.904;2023-02-22T07:06:46;7.70;99.90
13642;DHT22;6894;52.196;9.904;2023-02-22T07:09:13;7.60;99.90
13642;DHT22;6894;52.196;9.904;2023-02-22T07:11:40;7.70;99.90
13642;DHT22;6894;52.196;9.904;2023-02-22T07:14:07;7.70;99.90
13642;DHT22;6894;52.196;9.904;2023-02-22T07:16:35;7.60;99.90
13642;DHT22;6894;52.196;9.904;2023-02-22T07:19:02;7.70;99.90
13642;DHT22;6894;52.196;9.904;2023-02-22T07:21:29;7.60;99.90
13642;DHT22;6894;52.196;9.904;2023-02-22T07:23:56;7.70;99.90
13642;DHT22;6894;52.196;9.904;2023-02-22T07:26:25;7.80;99.90
13642;DHT22;6894;52.196;9.904;2023-02-22T07:28:52;7.80;99.90
13642;DHT22;6894;52.196;9.904;2023-02-22T07:31:19;7.80;99.90
13642;DHT22;6894;52.196;9.904;2023-02-22T07:33:47;7.80;99.90
13642;DHT22;6894;52.196;9.904;2023-02-22T07:36:14;7.80;99.90
13642;DHT22;6894;52.196;9.904;2023-02-22T07:38:42;7.90;99.90
13642;DHT22;6894;52.196;9.904;2023-02-22T07:41:09;7.90;99.90
13642;DHT22;6894;52.196;9.904;2023-02-22T07:43:36;8.00;99.90
13642;DHT22;6894;52.196;9.904;2023-02-22T07:46:03;8.00;99.90
13642;DHT22;6894;52.196;9.904;2023-02-22T07:48:30;8.10;99.90
13642;DHT22;6894;52.196;9.904;2023-02-22T07:50:58;8.00;99.90
13642;DHT22;6894;52.196;9.904;2023-02-22T07:53:27;8.10;99.90
13642;DHT22;6894;52.196;9.904;2023-02-22T07:55:55;8.20;99.90
13642;DHT22;6894;52.196;9.904;2023-02-22T07:58:24;8.40;99.90
13642;DHT22;6894;52.196;9.904;2023-02-22T08:00:51;8.40;99.90
13642;DHT22;6894;52.196;9.904;2023-02-22T08:03:20;8.60;99.90
13642;DHT22;6894;52.196;9.904;2023-02-22T08:05:50;8.60;99.90
13642;DHT22;6894;52.196;9.904;2023-02-22T08:08:18;8.80;99.90
13642;DHT22;6894;52.196;9.904;2023-02-22T08:10:46;9.00;99.90
13642;DHT22;6894;52.196;9.904;2023-02-22T08:13:13;9.30;99.90
13642;DHT22;6894;52.196;9.904;2023-02-22T08:15:41;9.70;99.90
13642;DHT22;6894;52.196;9.904;2023-02-22T08:18:10;10.10;99.90
13642;DHT22;6894;52.196;9.904;2023-02-22T08:20:39;10.50;99.90
13642;DHT22;6894;52.196;9.904;2023-02-22T08:23:06;10.70;99.90
13642;DHT22;6894;52.196;9.904;2023-02-22T08:25:35;10.80;99.90
13642;DHT22;6894;52.196;9.904;2023-02-22T08:28:03;10.80;99.90
13642;DHT22;6894;52.196;9.904;2023-02-22T08:30:31;10.70;99.90
13642;DHT22;6894;52.196;9.904;2023-02-22T08:32:59;10.80;99.90
13642;DHT22;6894;52.196;9.904;2023-02-22T08:35:28;10.90;99.90
13642;DHT22;6894;52.196;9.904;2023-02-22T08:37:57;10.90;99.90
13642;DHT22;6894;52.196;9.904;2023-02-22T08:40:26;11.10;99.90
13642;DHT22;6894;52.196;9.904;2023-02-22T08:42:54;11.10;99.90
13642;DHT22;6894;52.196;9.904;2023-02-22T08:45:21;11.20;99.90
13642;DHT22;6894;52.196;9.904;2023-02-22T08:47:48;11.20;99.90
13642;DHT22;6894;52.196;9.904;2023-02-22T08:50:17;11.20;99.90
13642;DHT22;6894;52.196;9.904;2023-02-22T08:52:44;11.30;99.90
13642;DHT22;6894;52.196;9.904;2023-02-22T08:55:11;11.40;99.90
13642;DHT22;6894;52.196;9.904;2023-02-22T08:57:38;11.60;99.90
13642;DHT22;6894;52.196;9.904;2023-02-22T09:00:07;11.60;58.40
13642;DHT22;6894;52.196;9.904;2023-02-22T09:02:34;11.90;61.40
13642;DHT22;6894;52.196;9.904;2023-02-22T09:05:01;12.10;1.00
13642;DHT22;6894;52.196;9.904;2023-02-22T09:07:30;12.30;1.00
13642;DHT22;6894;52.196;9.904;2023-02-22T09:09:57;12.40;1.00
13642;DHT22;6894;52.196;9.904;2023-02-22T09:12:23;12.70;1.00
13642;DHT22;6894;52.196;9.904;2023-02-22T09:14:50;12.80;1.00
13642;DHT22;6894;52.196;9.904;2023-02-22T09:17:19;12.70;1.00
13642;DHT22;6894;52.196;9.904;2023-02-22T09:19:45;12.70;1.00
13642;DHT22;6894;52.196;9.904;2023-02-22T09:22:12;12.80;1.00
13642;DHT22;6894;52.196;9.904;2023-02-22T09:24:39;12.80;1.00
13642;DHT22;6894;52.196;9.904;2023-02-22T09:27:07;12.80;1.00
13642;DHT22;6894;52.196;9.904;2023-02-22T09:29:36;12.90;1.00
13642;DHT22;6894;52.196;9.904;2023-02-22T09:32:04;12.90;99.90
13642;DHT22;6894;52.196;9.904;2023-02-22T09:34:32;12.80;1.00
13642;DHT22;6894;52.196;9.904;2023-02-22T09:37:00;12.60;1.00
13642;DHT22;6894;52.196;9.904;2023-02-22T09:39:29;12.40;1.00
13642;DHT22;6894;52.196;9.904;2023-02-22T09:42:04;12.40;1.00
13642;DHT22;6894;52.196;9.904;2023-02-22T09:44:38;12.40;1.00
13642;DHT22;6894;52.196;9.904;2023-02-22T09:47:12;12.40;1.00
13642;DHT22;6894;52.196;9.904;2023-02-22T09:49:52;12.40;1.00
13642;DHT22;6894;52.196;9.904;2023-02-22T09:52:24;12.50;1.00
13642;DHT22;6894;52.196;9.904;2023-02-22T09:54:57;12.60;1.00
13642;DHT22;6894;52.196;9.904;2023-02-22T09:57:33;12.70;1.00
13642;DHT22;6894;52.196;9.904;2023-02-22T10:00:06;12.70;1.00
13642;DHT22;6894;52.196;9.904;2023-02-22T10:02:45;12.60;1.00
13642;DHT22;6894;52.196;9.904;2023-02-22T10:05:20;12.70;1.00
13642;DHT22;6894;52.196;9.904;2023-02-22T10:07:54;12.70;1.00
13642;DHT22;6894;52.196;9.904;2023-02-22T10:10:25;12.70;1.00
13642;DHT22;6894;52.196;9.904;2023-02-22T10:12:58;12.70;1.00
13642;DHT22;6894;52.196;9.904;2023-02-22T10:15:41;12.80;1.00
13642;DHT22;6894;52.196;9.904;2023-02-22T10:21:12;13.00;99.90
13642;DHT22;6894;52.196;9.904;2023-02-22T10:23:46;13.10;99.90
13642;DHT22;6894;52.196;9.904;2023-02-22T10:26:17;13.30;66.20
13642;DHT22;6894;52.196;9.904;2023-02-22T10:28:51;13.50;1.00
13642;DHT22;6894;52.196;9.904;2023-02-22T10:31:24;13.50;1.00
13642;DHT22;6894;52.196;9.904;2023-02-22T10:33:55;13.50;1.00
13642;DHT22;6894;52.196;9.904;2023-02-22T10:36:26;13.50;1.00
13642;DHT22;6894;52.196;9.904;2023-02-22T10:38:55;13.50;1.00
13642;DHT22;6894;52.196;9.904;2023-02-22T10:41:27;13.60;1.00
13642;DHT22;6894;52.196;9.904;2023-02-22T10:43:55;13.70;1.00
13642;DHT22;6894;52.196;9.904;2023-02-22T10:46:23;13.90;1.00
13642;DHT22;6894;52.196;9.904;2023-02-22T10:48:55;14.20;1.00
13642;DHT22;6894;52.196;9.904;2023-02-22T10:51:26;14.10;1.00
13642;DHT22;6894;52.196;9.904;2023-02-22T10:53:58;14.20;1.00
13642;DHT22;6894;52.196;9.904;2023-02-22T10:56:26;14.20;33.40
13642;DHT22;6894;52.196;9.904;2023-02-22T10:58:55;14.10;1.00
13642;DHT22;6894;52.196;9.904;2023-02-22T11:01:34;14.10;81.80
13642;DHT22;6894;52.196;9.904;2023-02-22T11:04:06;14.30;99.90
13642;DHT22;6894;52.196;9.904;2023-02-22T11:06:37;14.30;1.00
13642;DHT22;6894;52.196;9.904;2023-02-22T11:09:07;14.30;1.00
13642;DHT22;6894;52.196;9.904;2023-02-22T11:11:36;14.20;1.00
13642;DHT22;6894;52.196;9.904;2023-02-22T11:14:04;14.40;1.00
13642;DHT22;6894;52.196;9.904;2023-02-22T11:16:34;14.50;1.00
13642;DHT22;6894;52.196;9.904;2023-02-22T11:19:10;14.60;11.10
13642;DHT22;6894;52.196;9.904;2023-02-22T11:21:39;14.60;99.90
13642;DHT22;6894;52.196;9.904;2023-02-22T11:24:08;14.70;99.90
13642;DHT22;6894;52.196;9.904;2023-02-22T11:26:38;14.80;57.90
13642;DHT22;6894;52.196;9.904;2023-02-22T11:29:12;15.00;1.00
13642;DHT22;6894;52.196;9.904;2023-02-22T11:31:42;15.20;1.00
13642;DHT22;6894;52.196;9.904;2023-02-22T11:34:26;15.20;99.90
13642;DHT22;6894;52.196;9.904;2023-02-22T11:36:54;15.40;99.90
13642;DHT22;6894;52.196;9.904;2023-02-22T11:39:24;15.50;1.00
13642;DHT22;6894;52.196;9.904;2023-02-22T11:41:51;15.70;99.90
13642;DHT22;6894;52.196;9.904;2023-02-22T11:44:23;15.70;99.90
13642;DHT22;6894;52.196;9.904;2023-02-22T11:46:52;15.70;1.00
13642;DHT22;6894;52.196;9.904;2023-02-22T11:49:20;15.90;1.00
13642;DHT22;6894;52.196;9.904;2023-02-22T11:51:58;15.70;1.00
13642;DHT22;6894;52.196;9.904;2023-02-22T11:55:07;15.90;99.90
13642;DHT22;6894;52.196;9.904;2023-02-22T11:57:43;16.20;1.00
13642;DHT22;6894;52.196;9.904;2023-02-22T12:00:18;16.20;99.90
13642;DHT22;6894;52.196;9.904;2023-02-22T12:03:16;16.40;1.00
13642;DHT22;6894;52.196;9.904;2023-02-22T12:05:55;16.60;1.00
13642;DHT22;6894;52.196;9.904;2023-02-22T12:08:39;16.70;1.00
13642;DHT22;6894;52.196;9.904;2023-02-22T12:11:14;16.50;1.00
13642;DHT22;6894;52.196;9.904;2023-02-22T12:13:59;16.50;99.90
13642;DHT22;6894;52.196;9.904;2023-02-22T12:16:35;16.70;99.90
13642;DHT22;6894;52.196;9.904;2023-02-22T12:19:18;16.90;1.00
13642;DHT22;6894;52.196;9.904;2023-02-22T12:21:52;17.00;1.00
13642;DHT22;6894;52.196;9.904;2023-02-22T12:24:24;17.10;1.00
13642;DHT22;6894;52.196;9.904;2023-02-22T12:26:55;17.30;99.90
13642;DHT22;6894;52.196;9.904;2023-02-22T12:29:28;17.20;1.00
13642;DHT22;6894;52.196;9.904;2023-02-22T12:32:00;17.20;99.90
13642;DHT22;6894;52.196;9.904;2023-02-22T12:34:33;17.60;1.00
13642;DHT22;6894;52.196;9.904;2023-02-22T12:37:10;17.60;1.00
13642;DHT22;6894;52.196;9.904;2023-02-22T12:39:48;17.40;1.00
13642;DHT22;6894;52.196;9.904;2023-02-22T12:42:17;17.00;1.00
13642;DHT22;6894;52.196;9.904;2023-02-22T12:44:54;16.90;99.90
13642;DHT22;6894;52.196;9.904;2023-02-22T12:47:30;16.90;1.00
13642;DHT22;6894;52.196;9.904;2023-02-22T12:50:04;17.00;1.00
13642;DHT22;6894;52.196;9.904;2023-02-22T12:52:41;17.00;1.00
13642;DHT22;6894;52.196;9.904;2023-02-22T12:55:15;17.00;99.90
13642;DHT22;6894;52.196;9.904;2023-02-22T12:57:48;17.00;85.10
13642;DHT22;6894;52.196;9.904;2023-02-22T13:00:20;16.90;99.90
13642;DHT22;6894;52.196;9.904;2023-02-22T13:02:57;16.90;1.00
13642;DHT22;6894;52.196;9.904;2023-02-22T13:05:29;16.90;99.90
13642;DHT22;6894;52.196;9.904;2023-02-22T13:08:19;16.80;1.00
13642;DHT22;6894;52.196;9.904;2023-02-22T13:11:03;16.80;1.00
13642;DHT22;6894;52.196;9.904;2023-02-22T13:13:39;16.70;1.00
13642;DHT22;6894;52.196;9.904;2023-02-22T13:16:16;16.60;99.90
13642;DHT22;6894;52.196;9.904;2023-02-22T13:18:51;16.60;99.90
13642;DHT22;6894;52.196;9.904;2023-02-22T13:21:26;16.60;99.90
13642;DHT22;6894;52.196;9.904;2023-02-22T13:23:58;16.50;99.90
13642;DHT22;6894;52.196;9.904;2023-02-22T13:26:35;16.40;99.90
13642;DHT22;6894;52.196;9.904;2023-02-22T13:29:06;16.40;99.90
13642;DHT22;6894;52.196;9.904;2023-02-22T13:31:53;16.50;1.00
13642;DHT22;6894;52.196;9.904;2023-02-22T13:34:42;16.30;99.90
13642;DHT22;6894;52.196;9.904;2023-02-22T13:37:29;16.10;1.00
13642;DHT22;6894;52.196;9.904;2023-02-22T13:40:29;16.10;1.00
13642;DHT22;6894;52.196;9.904;2023-02-22T13:43:15;16.20;1.00
13642;DHT22;6894;52.196;9.904;2023-02-22T13:46:09;16.10;1.00
13642;DHT22;6894;52.196;9.904;2023-02-22T13:49:01;16.10;1.00
13642;DHT22;6894;52.196;9.904;2023-02-22T13:51:44;15.90;1.00
13642;DHT22;6894;52.196;9.904;2023-02-22T13:54:16;15.90;1.00
13642;DHT22;6894;52.196;9.904;2023-02-22T13:56:47;15.80;99.90
13642;DHT22;6894;52.196;9.904;2023-02-22T13:59:34;15.80;99.90
13642;DHT22;6894;52.196;9.904;2023-02-22T14:02:02;15.90;41.30
13642;DHT22;6894;52.196;9.904;2023-02-22T14:04:38;16.00;1.00
13642;DHT22;6894;52.196;9.904;2023-02-22T14:10:36;15.90;1.00
13642;DHT22;6894;52.196;9.904;2023-02-22T14:13:04;16.10;1.00
13642;DHT22;6894;52.196;9.904;2023-02-22T14:15:32;16.10;1.00
13642;DHT22;6894;52.196;9.904;2023-02-22T14:18:01;16.20;1.00
13642;DHT22;6894;52.196;9.904;2023-02-22T14:20:29;16.10;1.00
13642;DHT22;6894;52.196;9.904;2023-02-22T14:23:27;16.10;1.00
13642;DHT22;6894;52.196;9.904;2023-02-22T14:25:56;16.20;1.00
13642;DHT22;6894;52.196;9.904;2023-02-22T14:28:41;16.30;1.00
13642;DHT22;6894;52.196;9.904;2023-02-22T14:31:13;16.60;99.90
13642;DHT22;6894;52.196;9.904;2023-02-22T14:33:56;16.60;99.90
13642;DHT22;6894;52.196;9.904;2023-02-22T14:36:27;16.60;1.00
13642;DHT22;6894;52.196;9.904;2023-02-22T14:39:09;16.70;1.00
13642;DHT22;6894;52.196;9.904;2023-02-22T14:41:39;16.70;1.00
13642;DHT22;6894;52.196;9.904;2023-02-22T14:44:06;16.70;1.00
13642;DHT22;6894;52.196;9.904;2023-02-22T14:46:41;16.50;93.80
13642;DHT22;6894;52.196;9.904;2023-02-22T14:49:11;16.40;1.00
13642;DHT22;6894;52.196;9.904;2023-02-22T14:51:49;16.40;99.90
13642;DHT22;6894;52.196;9.904;2023-02-22T14:54:24;16.50;99.90
13642;DHT22;6894;52.196;9.904;2023-02-22T14:56:58;16.60;99.90
13642;DHT22;6894;52.196;9.904;2023-02-22T14:59:52;16.40;1.00
13642;DHT22;6894;52.196;9.904;2023-02-22T15:02:25;16.40;99.90
13642;DHT22;6894;52.196;9.904;2023-02-22T15:04:53;16.20;1.00
13642;DHT22;6894;52.196;9.904;2023-02-22T15:07:23;16.20;99.90
13642;DHT22;6894;52.196;9.904;2023-02-22T15:10:03;16.00;99.90
13642;DHT22;6894;52.196;9.904;2023-02-22T15:12:32;15.90;27.70
13642;DHT22;6894;52.196;9.904;2023-02-22T15:15:11;15.80;99.90
13642;DHT22;6894;52.196;9.904;2023-02-22T15:17:40;15.70;1.00
13642;DHT22;6894;52.196;9.904;2023-02-22T15:20:14;15.60;1.00
13642;DHT22;6894;52.196;9.904;2023-02-22T15:22:42;15.60;99.90
13642;DHT22;6894;52.196;9.904;2023-02-22T15:25:09;15.50;99.90
13642;DHT22;6894;52.196;9.904;2023-02-22T15:27:38;15.40;99.90
13642;DHT22;6894;52.196;9.904;2023-02-22T15:30:15;15.40;1.00
13642;DHT22;6894;52.196;9.904;2023-02-22T15:32:43;15.40;99.90
13642;DHT22;6894;52.196;9.904;2023-02-22T15:35:16;15.30;99.90
13642;DHT22;6894;52.196;9.904;2023-02-22T15:37:43;15.30;1.00
13642;DHT22;6894;52.196;9.904;2023-02-22T15:40:15;15.30;1.00
13642;DHT22;6894;52.196;9.904;2023-02-22T15:42:45;15.20;1.00
13642;DHT22;6894;52.196;9.904;2023-02-22T15:45:17;15.20;1.00
13642;DHT22;6894;52.196;9.904;2023-02-22T15:47:48;15.10;99.90
13642;DHT22;6894;52.196;9.904;2023-02-22T15:50:19;15.10;99.90
13642;DHT22;6894;52.196;9.904;2023-02-22T15:52:51;15.00;1.00
13642;DHT22;6894;52.196;9.904;2023-02-22T15:55:19;14.90;1.00
13642;DHT22;6894;52.196;9.904;2023-02-22T15:57:47;14.90;1.00
13642;DHT22;6894;52.196;9.904;2023-02-22T16:00:22;14.80;16.40
13642;DHT22;6894;52.196;9.904;2023-02-22T16:02:51;14.70;1.00
13642;DHT22;6894;52.196;9.904;2023-02-22T16:05:18;14.70;1.00
13642;DHT22;6894;52.196;9.904;2023-02-22T16:07:47;14.50;1.00
13642;DHT22;6894;52.196;9.904;2023-02-22T16:10:22;14.50;99.90
13642;DHT22;6894;52.196;9.904;2023-02-22T16:13:05;14.50;1.00
13642;DHT22;6894;52.196;9.904;2023-02-22T16:15:33;14.40;1.00
13642;DHT22;6894;52.196;9.904;2023-02-22T16:18:16;14.40;1.00
13642;DHT22;6894;52.196;9.904;2023-02-22T16:20:57;14.40;1.00
13642;DHT22;6894;52.196;9.904;2023-02-22T16:23:25;14.20;1.00
13642;DHT22;6894;52.196;9.904;2023-02-22T16:26:04;14.20;93.40
13642;DHT22;6894;52.196;9.904;2023-02-22T16:28:32;14.10;99.90
13642;DHT22;6894;52.196;9.904;2023-02-22T16:31:01;14.10;1.00
13642;DHT22;6894;52.196;9.904;2023-02-22T16:33:29;14.10;1.00